Time;durP1;ratioP1;P1;durP2;ratioP2;P2;SDS_P1;SDS_P2;PMS_P1;PMS_P2;Temp;Humidity;BMP_temperature;BMP_pressure;BME280_temperature;BME280_humidity;BME280_pressure;Samples;Min_cycle;Max_cycle;Signal;HPM_P1;HPM_P2
2023/11/28 00:00:57;;;;;;;;;;;;;;;18.85;60.39;100349.28;7396874;19;1869;-56
2023/11/28 00:03:25;;;;;;;;;;;;;;;18.84;60.44;100345.78;7396198;19;1810;-56
2023/11/28 00:05:54;;;;;;;;;;;;;;;18.85;60.38;100346.63;7394076;19;1785;-56
2023/11/28 00:08:22;;;;;;;;;;;;;;;18.85;60.68;100351.97;7392882;19;1516;-56
2023/11/28 00:10:53;;;;;;;;;;;;;;;18.80;60.92;100363.13;7394176;19;1489;-56
2023/11/28 00:13:21;;;;;;;;;;;;;;;19.00;60.43;100341.63;7395337;19;1323;-56
2023/11/28 00:15:50;;;;;;;;;;;;;;;19.67;58.34;100331.59;7397105;19;991;-56
2023/11/28 00:18:18;;;;;;;;;;;;;;;19.39;59.43;100342.31;7395169;19;1776;-56
2023/11/28 00:20:46;;;;;;;;;;;;;;;19.08;59.66;100328.38;7393842;19;1843;-56
2023/11/28 00:23:15;;;;;;;;;;;;;;;18.93;60.35;100341.38;7393905;19;1856;-56
2023/11/28 00:25:43;;;;;;;;;;;;;;;18.89;60.51;100353.38;7395428;19;1788;-56
2023/11/28 00:28:14;;;;;;;;;;;;;;;18.82;60.73;100352.25;7393870;19;1454;-56
2023/11/28 00:30:43;;;;;;;;;;;;;;;18.80;61.01;100348.88;7393852;19;1650;-56
2023/11/28 00:33:11;;;;;;;;;;;;;;;18.80;60.98;100351.53;7394461;19;1461;-56
2023/11/28 00:35:40;;;;;;;;;;;;;;;19.37;59.15;100336.25;7394761;19;1575;-56
2023/11/28 00:38:09;;;;;;;;;;;;;;;19.65;58.60;100333.56;7393850;19;1298;-55
2023/11/28 00:40:37;;;;;;;;;;;;;;;19.26;59.48;100339.16;7393892;19;1909;-56
2023/11/28 00:43:06;;;;;;;;;;;;;;;19.04;60.10;100340.38;7391377;19;1855;-56
2023/11/28 00:45:38;;;;;;;;;;;;;;;18.94;60.52;100350.25;7379928;19;1779;-56
2023/11/28 00:48:07;;;;;;;;;;;;;;;18.84;60.79;100344.91;7394174;19;1812;-56
2023/11/28 00:50:35;;;;;;;;;;;;;;;18.80;60.92;100339.03;7393234;19;1436;-56
2023/11/28 00:53:04;;;;;;;;;;;;;;;18.77;61.04;100315.16;7392991;19;1666;-55
2023/11/28 00:55:32;;;;;;;;;;;;;;;18.68;61.41;100314.19;7393282;19;1475;-56
2023/11/28 00:58:00;;;;;;;;;;;;;;;19.21;59.89;100312.78;7392809;19;1721;-56
2023/11/28 01:00:29;;;;;;;;;;;;;;;19.61;58.84;100311.56;7393967;19;1471;-55
2023/11/28 01:03:01;;;;;;;;;;;;;;;19.31;59.79;100319.94;7392512;19;1845;-56
2023/11/28 01:05:29;;;;;;;;;;;;;;;19.01;60.15;100303.13;7392938;19;1535;-56
2023/11/28 01:07:58;;;;;;;;;;;;;;;18.90;60.73;100312.22;7393366;19;1674;-56
2023/11/28 01:10:27;;;;;;;;;;;;;;;18.79;60.97;100305.16;7394493;19;1279;-56
2023/11/28 01:12:55;;;;;;;;;;;;;;;18.79;61.06;100293.59;7393208;19;1770;-56
2023/11/28 01:15:23;;;;;;;;;;;;;;;18.76;61.03;100300.09;7393286;19;1819;-56
2023/11/28 01:17:52;;;;;;;;;;;;;;;18.77;61.03;100287.53;7392263;19;1753;-56
2023/11/28 01:20:22;;;;;;;;;;;;;;;18.72;61.30;100303.19;7392670;19;1724;-56
2023/11/28 01:22:51;;;;;;;;;;;;;;;18.84;60.92;100296.69;7389506;19;1857;-56
2023/11/28 01:25:19;;;;;;;;;;;;;;;19.62;58.87;100301.72;7392125;19;1712;-56
2023/11/28 01:27:47;;;;;;;;;;;;;;;19.39;59.38;100280.66;7392764;19;1468;-56
2023/11/28 01:30:16;;;;;;;;;;;;;;;19.06;60.13;100287.47;7390987;19;1653;-56
2023/11/28 01:32:44;;;;;;;;;;;;;;;18.85;60.74;100279.63;7391574;19;1591;-56
2023/11/28 01:35:13;;;;;;;;;;;;;;;18.80;60.98;100273.88;7390680;19;1772;-56
2023/11/28 01:37:44;;;;;;;;;;;;;;;18.76;61.18;100273.31;7393754;19;1099;-56
2023/11/28 01:40:13;;;;;;;;;;;;;;;18.74;61.14;100275.28;7388910;19;1472;-56
2023/11/28 01:42:41;;;;;;;;;;;;;;;18.70;61.67;100273.84;7391379;19;1854;-56
2023/11/28 01:45:11;;;;;;;;;;;;;;;19.45;59.35;100271.16;7375921;19;1724;-56
2023/11/28 01:47:39;;;;;;;;;;;;;;;19.57;59.24;100261.06;7391535;19;1537;-56
2023/11/28 01:50:08;;;;;;;;;;;;;;;19.19;59.54;100263.00;7390949;19;1405;-56
2023/11/28 01:52:37;;;;;;;;;;;;;;;18.97;60.45;100262.38;7393581;19;1476;-56
2023/11/28 01:55:09;;;;;;;;;;;;;;;18.83;60.70;100257.50;7391012;19;1817;-56
2023/11/28 01:57:37;;;;;;;;;;;;;;;18.76;61.30;100261.72;7391371;19;1669;-56
2023/11/28 02:00:04;;;;;;;;;;;;;;;18.73;61.39;100256.69;7391614;19;1717;-56
2023/11/28 02:02:33;;;;;;;;;;;;;;;18.66;61.46;100245.69;7389503;19;1845;-56
2023/11/28 02:05:02;;;;;;;;;;;;;;;19.03;60.43;100242.19;7390906;19;1697;-56
2023/11/28 02:07:30;;;;;;;;;;;;;;;19.76;58.58;100242.19;7393064;19;1038;-56
2023/11/28 02:10:00;;;;;;;;;;;;;;;19.37;59.64;100231.69;7390338;19;1619;-56
2023/11/28 02:12:31;;;;;;;;;;;;;;;18.97;60.02;100230.22;7391939;19;1749;-56
2023/11/28 02:14:59;;;;;;;;;;;;;;;18.84;60.56;100225.22;7392459;19;1559;-56
2023/11/28 02:17:27;;;;;;;;;;;;;;;18.75;60.92;100217.19;7391126;19;1747;-56
2023/11/28 02:19:57;;;;;;;;;;;;;;;18.72;61.23;100226.38;7389589;19;1540;-54
2023/11/28 02:22:25;;;;;;;;;;;;;;;18.70;61.14;100220.28;7389092;19;1859;-55
2023/11/28 02:24:56;;;;;;;;;;;;;;;18.61;61.66;100216.66;7390172;19;1555;-56
2023/11/28 02:27:27;;;;;;;;;;;;;;;19.03;60.31;100200.16;7389051;19;1689;-56
2023/11/28 02:29:56;;;;;;;;;;;;;;;19.68;58.57;100194.63;7390359;19;1495;-56
2023/11/28 02:32:24;;;;;;;;;;;;;;;19.40;59.40;100190.34;7390635;19;1479;-56
2023/11/28 02:34:52;;;;;;;;;;;;;;;19.10;60.11;100199.56;7388818;19;1527;-56
2023/11/28 02:37:20;;;;;;;;;;;;;;;18.87;60.62;100181.22;7391233;19;1130;-56
2023/11/28 02:39:49;;;;;;;;;;;;;;;18.81;60.73;100189.84;7386713;19;1511;-56
2023/11/28 02:42:17;;;;;;;;;;;;;;;18.71;61.19;100175.63;7388304;19;1853;-56
2023/11/28 02:44:48;;;;;;;;;;;;;;;19.15;60.01;100171.31;7386190;19;1390;-72
2023/11/28 02:47:16;;;;;;;;;;;;;;;19.98;58.23;100163.06;7378608;19;1467;-71
2023/11/28 02:49:45;;;;;;;;;;;;;;;20.95;55.90;100161.09;7390634;19;1741;-71
2023/11/28 02:52:13;;;;;;;;;;;;;;;21.49;54.71;100151.78;7391303;19;1657;-72
2023/11/28 02:54:41;;;;;;;;;;;;;;;21.92;53.47;100147.09;7390385;19;1682;-71
2023/11/28 02:57:10;;;;;;;;;;;;;;;21.89;53.65;100158.22;7392986;19;1011;-71
2023/11/28 02:59:38;;;;;;;;;;;;;;;21.80;53.75;100144.72;7388978;19;2037;-72
2023/11/28 03:02:09;;;;;;;;;;;;;;;21.82;54.06;100149.94;7389427;19;1865;-72
2023/11/28 03:04:38;;;;;;;;;;;;;;;21.71;54.29;100140.38;7389786;19;1800;-74
2023/11/28 03:07:06;;;;;;;;;;;;;;;21.58;54.77;100132.78;7389935;19;1124;-73
2023/11/28 03:09:34;;;;;;;;;;;;;;;21.55;54.99;100129.63;7389256;19;1341;-73
2023/11/28 03:12:03;;;;;;;;;;;;;;;21.56;55.04;100115.16;7389850;19;1506;-73
2023/11/28 03:14:31;;;;;;;;;;;;;;;21.60;55.26;100132.63;7389367;19;1481;-73
2023/11/28 03:16:59;;;;;;;;;;;;;;;21.60;55.37;100111.09;7389714;19;1506;-72
2023/11/28 03:19:30;;;;;;;;;;;;;;;21.65;55.27;100116.84;7388367;19;1453;-73
2023/11/28 03:21:58;;;;;;;;;;;;;;;21.67;55.10;100095.97;7389795;19;1835;-72
2023/11/28 03:24:27;;;;;;;;;;;;;;;21.64;55.40;100107.06;7388675;19;1527;-73
2023/11/28 03:26:55;;;;;;;;;;;;;;;21.66;55.41;100105.06;7388307;19;1839;-73
2023/11/28 03:29:23;;;;;;;;;;;;;;;21.57;55.67;100085.38;7389401;19;1373;-72
2023/11/28 03:31:52;;;;;;;;;;;;;;;21.71;55.50;100086.56;7390268;19;1429;-72
2023/11/28 03:34:20;;;;;;;;;;;;;;;21.73;55.41;100083.72;7389271;19;1868;-72
2023/11/28 03:36:51;;;;;;;;;;;;;;;21.78;55.39;100100.16;7387939;19;1774;-71
2023/11/28 03:39:20;;;;;;;;;;;;;;;21.75;55.53;100066.38;7385769;19;1464;-71
2023/11/28 03:41:49;;;;;;;;;;;;;;;21.83;55.27;100060.97;7387945;19;1380;-72
2023/11/28 03:44:17;;;;;;;;;;;;;;;21.91;55.17;100064.66;7388602;19;1540;-65
2023/11/28 03:46:46;;;;;;;;;;;;;;;21.91;55.34;100059.28;7369665;19;1302;-71
2023/11/28 03:49:14;;;;;;;;;;;;;;;21.61;55.91;100048.22;7392391;19;1504;-72
2023/11/28 03:51:42;;;;;;;;;;;;;;;21.61;56.05;100042.84;7397020;19;1350;-71
2023/11/28 03:54:13;;;;;;;;;;;;;;;21.44;56.23;100044.69;7397655;19;1314;-71
2023/11/28 03:56:44;;;;;;;;;;;;;;;21.30;56.25;100048.03;7396117;19;1900;-71
2023/11/28 03:59:12;;;;;;;;;;;;;;;21.26;56.68;100050.22;7393826;19;1778;-72
2023/11/28 04:01:41;;;;;;;;;;;;;;;21.13;56.81;100041.81;7394144;19;1651;-73
2023/11/28 04:04:09;;;;;;;;;;;;;;;21.11;57.01;100049.19;7393733;19;1865;-73
2023/11/28 04:06:38;;;;;;;;;;;;;;;21.14;56.69;100068.53;7394822;19;1559;-74
2023/11/28 04:09:06;;;;;;;;;;;;;;;21.04;57.13;100036.44;7394430;19;1472;-73
2023/11/28 04:11:37;;;;;;;;;;;;;;;21.06;57.18;100039.78;7394697;19;1371;-73
2023/11/28 04:14:06;;;;;;;;;;;;;;;21.00;57.25;100045.84;7395788;19;1560;-73
2023/11/28 04:16:34;;;;;;;;;;;;;;;21.00;57.17;100035.06;7394784;19;1463;-73
2023/11/28 04:19:02;;;;;;;;;;;;;;;21.02;56.98;100026.84;7393635;19;1492;-72
2023/11/28 04:21:31;;;;;;;;;;;;;;;21.01;57.00;100015.28;7393603;19;1514;-72
2023/11/28 04:23:59;;;;;;;;;;;;;;;20.87;57.46;100007.88;7392142;19;1893;-72
2023/11/28 04:26:27;;;;;;;;;;;;;;;20.74;57.60;100029.00;7394742;19;1304;-72
2023/11/28 04:28:58;;;;;;;;;;;;;;;20.63;57.96;100014.88;7392987;19;1872;-73
2023/11/28 04:31:26;;;;;;;;;;;;;;;20.56;58.12;99999.56;7391982;19;1729;-68
2023/11/28 04:33:55;;;;;;;;;;;;;;;20.62;58.22;100013.19;7393833;19;1543;-72
2023/11/28 04:36:24;;;;;;;;;;;;;;;20.66;57.92;100001.09;7391809;19;1407;-72
2023/11/28 04:38:52;;;;;;;;;;;;;;;20.70;57.66;99985.50;7392943;19;1456;-72
2023/11/28 04:41:21;;;;;;;;;;;;;;;20.65;57.98;99998.56;7392777;19;1368;-73
2023/11/28 04:43:49;;;;;;;;;;;;;;;20.76;57.51;99994.75;7392070;19;1847;-75
2023/11/28 04:46:20;;;;;;;;;;;;;;;20.87;57.17;99989.06;7379388;19;1136;-72
2023/11/28 04:48:48;;;;;;;;;;;;;;;20.75;56.51;99983.16;7390259;19;1533;-71
2023/11/28 04:51:17;;;;;;;;;;;;;;;20.85;55.98;99973.09;7392155;19;1395;-71
2023/11/28 04:53:45;;;;;;;;;;;;;;;20.73;56.05;99985.19;7391430;19;1543;-71
2023/11/28 04:56:13;;;;;;;;;;;;;;;20.94;55.81;99975.78;7381837;19;1430;-69
2023/11/28 04:58:43;;;;;;;;;;;;;;;21.12;55.17;99978.31;7391866;19;1761;-71
2023/11/28 05:01:12;;;;;;;;;;;;;;;21.16;55.11;99966.19;7387243;19;1378;-71
2023/11/28 05:03:42;;;;;;;;;;;;;;;20.91;54.78;99957.28;7392050;19;1851;-71
2023/11/28 05:06:11;;;;;;;;;;;;;;;21.24;54.00;99976.94;7392818;19;1472;-71
2023/11/28 05:08:39;;;;;;;;;;;;;;;21.25;53.70;99967.88;7393125;19;1634;-69
2023/11/28 05:11:08;;;;;;;;;;;;;;;21.18;53.67;99956.13;7392576;19;1495;-71
2023/11/28 05:13:37;;;;;;;;;;;;;;;21.17;53.96;99965.19;7391982;19;1528;-69
2023/11/28 05:16:06;;;;;;;;;;;;;;;21.15;54.06;99956.44;7392732;19;1370;-69
2023/11/28 05:18:34;;;;;;;;;;;;;;;21.21;53.94;99956.63;7394110;19;1488;-69
2023/11/28 05:21:05;;;;;;;;;;;;;;;21.20;53.69;99946.03;7393075;19;1182;-70
2023/11/28 05:23:33;;;;;;;;;;;;;;;21.24;53.81;99939.31;7392080;19;1865;-70
2023/11/28 05:26:02;;;;;;;;;;;;;;;21.24;53.69;99939.31;7393049;19;1500;-70
2023/11/28 05:28:30;;;;;;;;;;;;;;;21.24;53.73;99950.88;7393049;19;1540;-69
2023/11/28 05:30:58;;;;;;;;;;;;;;;20.89;53.91;99927.91;7392056;19;1585;-69
2023/11/28 05:33:26;;;;;;;;;;;;;;;21.24;53.77;99950.06;7390118;19;1888;-71
2023/11/28 05:35:55;;;;;;;;;;;;;;;21.26;53.03;99939.97;7392274;19;1516;-71
2023/11/28 05:38:26;;;;;;;;;;;;;;;21.22;52.78;99935.94;7393932;19;1348;-70
2023/11/28 05:40:54;;;;;;;;;;;;;;;21.21;52.97;99937.81;7400680;19;1138;-70
2023/11/28 05:43:22;;;;;;;;;;;;;;;20.98;53.33;99937.66;7396920;19;1826;-71
2023/11/28 05:45:51;;;;;;;;;;;;;;;20.37;54.83;99928.16;7392753;19;1769;-70
2023/11/28 05:48:19;;;;;;;;;;;;;;;19.96;56.17;99939.63;7382022;19;1532;-70
2023/11/28 05:50:47;;;;;;;;;;;;;;;19.90;56.04;99912.63;7392985;19;1744;-69
2023/11/28 05:53:16;;;;;;;;;;;;;;;20.26;55.19;99922.09;7389215;19;1499;-70
2023/11/28 05:55:46;;;;;;;;;;;;;;;20.56;54.19;99913.59;7391312;19;1538;-70
2023/11/28 05:58:15;;;;;;;;;;;;;;;20.70;53.96;99922.88;7391368;19;1583;-71
2023/11/28 06:00:43;;;;;;;;;;;;;;;20.74;53.70;99919.69;7388353;19;1501;-74
2023/11/28 06:03:11;;;;;;;;;;;;;;;20.72;54.04;99929.75;7389324;19;1867;-73
2023/11/28 06:05:40;;;;;;;;;;;;;;;20.27;55.04;99921.13;7391799;19;1392;-73
2023/11/28 06:08:08;;;;;;;;;;;;;;;19.86;56.10;99910.25;7391808;19;2006;-71
2023/11/28 06:10:36;;;;;;;;;;;;;;;19.64;56.41;99908.94;7389944;19;1820;-72
2023/11/28 06:13:07;;;;;;;;;;;;;;;19.54;56.85;99912.75;7387879;19;1887;-71
2023/11/28 06:15:36;;;;;;;;;;;;;;;19.45;57.45;99911.88;7389956;19;1531;-69
2023/11/28 06:18:04;;;;;;;;;;;;;;;19.37;57.56;99911.81;7389185;19;1741;-72
2023/11/28 06:20:32;;;;;;;;;;;;;;;19.38;57.81;99906.31;7385578;19;1752;-73
2023/11/28 06:23:01;;;;;;;;;;;;;;;19.98;56.44;99891.16;7387091;19;1847;-68
2023/11/28 06:25:29;;;;;;;;;;;;;;;20.39;55.38;99891.25;7386000;19;1346;-66
2023/11/28 06:27:57;;;;;;;;;;;;;;;20.07;56.31;99900.91;7384178;19;1663;-68
2023/11/28 06:30:28;;;;;;;;;;;;;;;19.75;57.03;99889.06;7389689;19;1518;-68
2023/11/28 06:32:57;;;;;;;;;;;;;;;19.49;57.29;99891.78;7390874;19;1721;-68
2023/11/28 06:35:26;;;;;;;;;;;;;;;19.35;57.62;99882.47;7391639;19;1566;-70
2023/11/28 06:37:54;;;;;;;;;;;;;;;19.67;57.98;99864.88;7393417;19;1413;-66
2023/11/28 06:40:22;;;;;;;;;;;;;;;20.21;56.90;99884.19;7389041;19;1427;-68
2023/11/28 06:42:50;;;;;;;;;;;;;;;19.94;57.73;99871.03;7390362;19;1840;-67
2023/11/28 06:45:19;;;;;;;;;;;;;;;19.63;58.32;99875.06;7389803;19;1578;-68
2023/11/28 06:47:50;;;;;;;;;;;;;;;19.37;58.41;99869.75;7374807;19;1739;-66
2023/11/28 06:50:19;;;;;;;;;;;;;;;19.74;57.92;99865.09;7388518;19;1627;-66
2023/11/28 06:52:48;;;;;;;;;;;;;;;20.52;55.78;99864.75;7386572;19;1693;-67
2023/11/28 06:55:17;;;;;;;;;;;;;;;21.05;54.59;99865.25;7387529;19;1496;-66
2023/11/28 06:57:45;;;;;;;;;;;;;;;21.20;54.31;99849.25;7388560;19;1688;-66
2023/11/28 07:00:14;;;;;;;;;;;;;;;21.13;54.14;99851.78;7386151;19;1571;-66
2023/11/28 07:02:42;;;;;;;;;;;;;;;20.96;54.38;99840.22;7387984;19;1705;-66
2023/11/28 07:05:13;;;;;;;;;;;;;;;20.45;55.17;99794.75;7384496;19;1858;-66
2023/11/28 07:07:42;;;;;;;;;;;;;;;20.78;55.30;99848.47;7391481;19;1786;-66
2023/11/28 07:10:10;;;;;;;;;;;;;;;20.69;55.25;99843.28;7390735;19;1757;-66
2023/11/28 07:12:39;;;;;;;;;;;;;;;20.68;55.34;99846.97;7390606;19;1772;-69
2023/11/28 07:15:07;;;;;;;;;;;;;;;20.62;55.35;99827.84;7391239;19;1775;-69
2023/11/28 07:17:37;;;;;;;;;;;;;;;20.64;55.20;99841.94;7391230;19;1741;-69
2023/11/28 07:20:06;;;;;;;;;;;;;;;20.63;55.26;99834.91;7390529;19;1764;-69
2023/11/28 07:22:37;;;;;;;;;;;;;;;20.73;55.06;99829.34;7396092;19;1800;-69
2023/11/28 07:25:07;;;;;;;;;;;;;;;20.82;54.92;99827.47;7395599;19;1877;-69
2023/11/28 07:27:35;;;;;;;;;;;;;;;20.84;54.87;99826.28;7396851;19;1705;-66
2023/11/28 07:30:03;;;;;;;;;;;;;;;20.77;54.93;99809.19;7396169;19;1752;-67
2023/11/28 07:32:31;;;;;;;;;;;;;;;20.75;55.22;99810.34;7398183;19;1610;-67
2023/11/28 07:35:00;;;;;;;;;;;;;;;20.69;55.27;99806.53;7397350;19;1677;-67
2023/11/28 07:37:28;;;;;;;;;;;;;;;20.74;54.99;99811.38;7399679;19;1647;-67
2023/11/28 07:39:59;;;;;;;;;;;;;;;20.76;54.96;99812.03;7394269;19;1795;-68
2023/11/28 07:42:27;;;;;;;;;;;;;;;20.74;54.98;99808.69;7396776;19;1907;-67
2023/11/28 07:44:56;;;;;;;;;;;;;;;20.79;54.88;99784.81;7394134;19;1844;-67
2023/11/28 07:47:24;;;;;;;;;;;;;;;20.71;55.00;99799.13;7382858;19;1556;-67
2023/11/28 07:49:54;;;;;;;;;;;;;;;20.86;54.98;99799.25;7397225;19;1697;-68
2023/11/28 07:52:22;;;;;;;;;;;;;;;20.81;54.64;99797.09;7397131;19;1602;-68
2023/11/28 07:54:50;;;;;;;;;;;;;;;20.94;54.46;99796.53;7396921;19;1756;-68
2023/11/28 07:57:21;;;;;;;;;;;;;;;20.93;54.34;99783.28;7398254;19;1531;-68
2023/11/28 07:59:49;;;;;;;;;;;;;;;21.02;54.30;99779.56;7397656;19;2057;-68
2023/11/28 08:02:18;;;;;;;;;;;;;;;21.04;54.19;99764.94;7397576;19;999;-67
2023/11/28 08:04:46;;;;;;;;;;;;;;;21.30;53.42;99776.44;7395018;19;1834;-67
2023/11/28 08:07:15;;;;;;;;;;;;;;;21.39;53.53;99787.00;7395744;19;1870;-68
2023/11/28 08:09:44;;;;;;;;;;;;;;;21.26;53.79;99763.34;7396236;19;1774;-67
2023/11/28 08:12:13;;;;;;;;;;;;;;;21.00;54.19;99757.41;7396518;19;1761;-68
2023/11/28 08:14:44;;;;;;;;;;;;;;;21.03;54.15;99735.56;7395742;19;1772;-67
2023/11/28 08:17:12;;;;;;;;;;;;;;;20.78;53.85;99738.31;7394940;19;1800;-67
2023/11/28 08:19:40;;;;;;;;;;;;;;;20.23;55.35;99726.47;7394690;19;1776;-67
2023/11/28 08:22:08;;;;;;;;;;;;;;;19.90;55.17;99735.53;7395217;19;1757;-67
2023/11/28 08:24:37;;;;;;;;;;;;;;;19.73;55.89;99729.28;7396057;19;1849;-67
2023/11/28 08:27:06;;;;;;;;;;;;;;;19.61;56.53;99736.78;7393539;19;1540;-67
2023/11/28 08:29:34;;;;;;;;;;;;;;;19.53;56.72;99724.19;7395499;19;1510;-68
2023/11/28 08:32:05;;;;;;;;;;;;;;;19.50;56.66;99707.59;7394620;19;1527;-67
2023/11/28 08:34:34;;;;;;;;;;;;;;;19.56;56.73;99715.00;7395877;19;1183;-67
2023/11/28 08:37:02;;;;;;;;;;;;;;;20.17;55.58;99699.44;7394319;19;1720;-67
2023/11/28 08:39:30;;;;;;;;;;;;;;;20.27;55.27;99682.16;7394301;19;1550;-67
2023/11/28 08:41:59;;;;;;;;;;;;;;;19.93;56.20;99676.16;7394982;19;1744;-67
2023/11/28 08:44:28;;;;;;;;;;;;;;;19.65;56.86;99663.03;7393926;19;1845;-67
2023/11/28 08:46:57;;;;;;;;;;;;;;;19.20;57.32;99635.66;7384875;19;1696;-68
2023/11/28 08:49:28;;;;;;;;;;;;;;;19.43;57.51;99667.19;7392181;19;1574;-67
2023/11/28 08:51:56;;;;;;;;;;;;;;;19.63;57.20;99681.13;7395284;19;1677;-67
2023/11/28 08:54:25;;;;;;;;;;;;;;;20.22;55.58;99633.50;7396296;19;1051;-68
2023/11/28 08:56:53;;;;;;;;;;;;;;;20.22;55.43;99628.16;7396542;19;1382;-67
2023/11/28 08:59:22;;;;;;;;;;;;;;;19.84;56.51;99624.34;7395146;19;1750;-67
2023/11/28 09:01:50;;;;;;;;;;;;;;;19.56;57.15;99626.50;7395429;19;1800;-68
2023/11/28 09:04:19;;;;;;;;;;;;;;;19.35;57.63;99613.56;7393728;19;1874;-68
2023/11/28 09:06:50;;;;;;;;;;;;;;;19.28;57.91;99602.69;7394231;19;1725;-67
2023/11/28 09:09:18;;;;;;;;;;;;;;;19.84;56.61;99584.94;7394533;19;1895;-68
2023/11/28 09:11:47;;;;;;;;;;;;;;;20.38;55.17;99545.88;7393993;19;1791;-67
2023/11/28 09:14:15;;;;;;;;;;;;;;;19.99;56.03;99555.56;7392882;19;1499;-67
2023/11/28 09:16:45;;;;;;;;;;;;;;;19.62;57.23;99545.38;7394251;19;1535;-67
2023/11/28 09:19:14;;;;;;;;;;;;;;;19.44;57.41;99556.28;7394285;19;1493;-67
2023/11/28 09:21:42;;;;;;;;;;;;;;;19.34;57.64;99553.78;7393633;19;1486;-67
2023/11/28 09:24:13;;;;;;;;;;;;;;;19.61;57.14;99551.75;7393963;19;1858;-67
2023/11/28 09:26:41;;;;;;;;;;;;;;;20.17;55.80;99555.34;7395444;19;1285;-67
2023/11/28 09:29:10;;;;;;;;;;;;;;;20.08;56.00;99537.59;7394334;19;1416;-67
2023/11/28 09:31:38;;;;;;;;;;;;;;;19.66;56.86;99541.34;7393765;19;1498;-68
2023/11/28 09:34:07;;;;;;;;;;;;;;;19.41;57.30;99532.47;7392680;19;1791;-68
2023/11/28 09:36:35;;;;;;;;;;;;;;;19.29;57.71;99540.03;7393414;19;1451;-68
2023/11/28 09:39:05;;;;;;;;;;;;;;;19.41;57.48;99530.63;7392002;19;1507;-68
2023/11/28 09:41:38;;;;;;;;;;;;;;;20.29;55.54;99525.44;7393714;19;1518;-68
2023/11/28 09:44:07;;;;;;;;;;;;;;;20.33;55.23;99521.41;7390198;19;1859;-68
2023/11/28 09:46:37;;;;;;;;;;;;;;;19.84;56.39;99539.34;7393050;19;1569;-68
2023/11/28 09:49:06;;;;;;;;;;;;;;;19.51;57.19;99522.41;7381883;19;1296;-68
2023/11/28 09:51:34;;;;;;;;;;;;;;;18.99;57.61;99486.06;7394550;19;1748;-68
2023/11/28 09:54:02;;;;;;;;;;;;;;;19.24;57.74;99507.53;7393126;19;1892;-68
2023/11/28 09:56:31;;;;;;;;;;;;;;;19.95;56.14;99479.09;7392336;19;1780;-68
2023/11/28 09:59:04;;;;;;;;;;;;;;;20.51;55.13;99446.78;7393130;19;1540;-68
2023/11/28 10:01:34;;;;;;;;;;;;;;;20.00;55.86;99449.06;7392196;19;1827;-68
2023/11/28 10:04:02;;;;;;;;;;;;;;;19.63;56.83;99437.09;7392518;19;1833;-68
2023/11/28 10:06:30;;;;;;;;;;;;;;;19.35;57.13;99440.16;7391801;19;1748;-68
2023/11/28 10:09:01;;;;;;;;;;;;;;;19.21;57.67;99447.06;7392042;19;1726;-68
2023/11/28 10:11:30;;;;;;;;;;;;;;;19.63;56.72;99461.22;7392240;19;1475;-68
2023/11/28 10:13:59;;;;;;;;;;;;;;;20.20;55.49;99447.63;7392961;19;1714;-68
2023/11/28 10:16:46;;;;;;;;;;;;;;;19.91;56.00;99453.63;7392210;19;1546;-68
2023/11/28 10:19:17;;;;;;;;;;;;;;;19.51;56.95;99446.50;7393520;19;1713;-68
2023/11/28 10:21:48;;;;;;;;;;;;;;;19.30;57.11;99428.28;7391738;19;1810;-68
2023/11/28 10:24:18;;;;;;;;;;;;;;;19.16;57.39;99429.81;7391447;19;1878;-68
2023/11/28 10:26:46;;;;;;;;;;;;;;;19.86;56.00;99419.28;7393003;19;1756;-68
2023/11/28 10:29:14;;;;;;;;;;;;;;;20.39;54.72;99394.50;7393155;19;1492;-68
2023/11/28 10:31:43;;;;;;;;;;;;;;;20.12;55.22;99418.16;7394163;19;1008;-68
2023/11/28 10:34:11;;;;;;;;;;;;;;;19.63;56.22;99408.41;7391272;19;1903;-68
2023/11/28 10:36:46;;;;;;;;;;;;;;;19.39;56.96;99412.00;7391679;19;1756;-68
2023/11/28 10:39:16;;;;;;;;;;;;;;;19.25;57.46;99396.63;7389706;19;1559;-68
2023/11/28 10:41:45;;;;;;;;;;;;;;;19.44;56.79;99401.63;7392110;19;1633;-68
2023/11/28 10:44:13;;;;;;;;;;;;;;;20.35;54.75;99382.44;7391608;19;1851;-68
2023/11/28 10:46:42;;;;;;;;;;;;;;;20.26;54.34;99352.97;7391648;19;1777;-69
2023/11/28 10:49:10;;;;;;;;;;;;;;;19.77;55.41;99382.75;7379264;19;1516;-68
2023/11/28 10:51:38;;;;;;;;;;;;;;;19.46;56.55;99364.75;7392254;19;1081;-68
2023/11/28 10:54:11;;;;;;;;;;;;;;;19.27;56.95;99354.41;7391976;19;1812;-68
2023/11/28 10:56:44;;;;;;;;;;;;;;;19.15;57.31;99356.63;7398747;19;1780;-69
2023/11/28 10:59:15;;;;;;;;;;;;;;;20.00;55.17;99333.69;7398353;19;1792;-69
2023/11/28 11:01:46;;;;;;;;;;;;;;;20.46;53.88;99325.66;7398970;19;1788;-68
2023/11/28 11:04:15;;;;;;;;;;;;;;;19.98;55.05;99319.63;7399729;19;1673;-68
2023/11/28 11:06:43;;;;;;;;;;;;;;;19.54;55.96;99309.44;7398084;19;1775;-68
2023/11/28 11:09:16;;;;;;;;;;;;;;;19.29;56.51;99304.16;7398781;19;1539;-68
2023/11/28 11:11:44;;;;;;;;;;;;;;;19.33;56.19;99300.13;7397629;19;1736;-68
2023/11/28 11:14:18;;;;;;;;;;;;;;;19.96;55.07;99286.78;7396771;19;1670;-68
2023/11/28 11:16:48;;;;;;;;;;;;;;;19.93;54.97;99290.63;7396784;19;1697;-68
2023/11/28 11:19:17;;;;;;;;;;;;;;;19.53;55.83;99275.56;7398066;19;1689;-68
2023/11/28 11:21:50;;;;;;;;;;;;;;;19.29;56.53;99277.34;7399018;19;1657;-68
2023/11/28 11:24:21;;;;;;;;;;;;;;;19.14;56.61;99285.28;7396628;19;1489;-68
2023/11/28 11:26:50;;;;;;;;;;;;;;;19.54;55.92;99259.31;7395988;19;1851;-68
2023/11/28 11:29:37;;;;;;;;;;;;;;;19.97;54.93;99261.59;7398415;19;1481;-68
2023/11/28 11:32:08;;;;;;;;;;;;;;;19.63;55.59;99239.47;7399040;19;1494;-68
2023/11/28 11:34:37;;;;;;;;;;;;;;;19.34;56.49;99242.84;7397436;19;1623;-68
2023/11/28 11:37:09;;;;;;;;;;;;;;;19.15;56.64;99241.41;7398160;19;1155;-68
2023/11/28 11:39:40;;;;;;;;;;;;;;;19.44;55.80;99222.00;7393380;19;1907;-68
2023/11/28 11:42:14;;;;;;;;;;;;;;;19.92;54.87;99234.47;7397749;19;1412;-68
2023/11/28 11:44:43;;;;;;;;;;;;;;;19.70;55.30;99220.84;7397337;19;1854;-68
2023/11/28 11:47:18;;;;;;;;;;;;;;;19.40;55.99;99236.78;7397309;19;1496;-68
2023/11/28 11:49:48;;;;;;;;;;;;;;;19.17;56.35;99217.13;7384164;19;1512;-68
2023/11/28 11:52:17;;;;;;;;;;;;;;;19.34;56.26;99237.47;7397849;19;1577;-68
2023/11/28 11:54:49;;;;;;;;;;;;;;;19.88;54.92;99262.69;7398189;19;1764;-69
2023/11/28 11:57:17;;;;;;;;;;;;;;;19.91;54.77;99232.81;7397373;19;1502;-68
2023/11/28 11:59:46;;;;;;;;;;;;;;;19.53;55.86;99238.88;7398309;19;1230;-68
2023/11/28 12:02:15;;;;;;;;;;;;;;;19.28;56.09;99232.81;7397916;19;1488;-68
2023/11/28 12:04:44;;;;;;;;;;;;;;;19.13;56.48;99224.66;7397523;19;1849;-68
2023/11/28 12:07:14;;;;;;;;;;;;;;;19.51;56.08;99205.22;7394790;19;1772;-68
2023/11/28 12:09:42;;;;;;;;;;;;;;;20.15;54.12;99208.44;7397493;19;1721;-68
2023/11/28 12:12:14;;;;;;;;;;;;;;;20.22;53.90;99212.09;7396560;19;1542;-68
2023/11/28 12:14:43;;;;;;;;;;;;;;;19.64;55.32;99202.78;7396413;19;1749;-68
2023/11/28 12:17:11;;;;;;;;;;;;;;;19.31;56.09;99200.28;7395534;19;1472;-68
2023/11/28 12:19:39;;;;;;;;;;;;;;;19.16;56.30;99175.22;7395174;19;1798;-68
2023/11/28 12:22:10;;;;;;;;;;;;;;;19.65;55.54;99193.72;7394331;19;1479;-67
2023/11/28 12:24:38;;;;;;;;;;;;;;;20.15;54.35;99181.59;7397121;19;1744;-68
2023/11/28 12:27:07;;;;;;;;;;;;;;;19.74;54.99;99170.41;7393576;19;1849;-68
2023/11/28 12:29:39;;;;;;;;;;;;;;;19.40;55.89;99185.00;7396004;19;1693;-68
2023/11/28 12:32:08;;;;;;;;;;;;;;;19.18;56.29;99176.75;7396421;19;1612;-68
2023/11/28 12:34:39;;;;;;;;;;;;;;;19.39;55.86;99160.03;7397691;19;1670;-68
2023/11/28 12:37:07;;;;;;;;;;;;;;;19.90;54.50;99156.03;7396528;19;1070;-68
2023/11/28 12:39:36;;;;;;;;;;;;;;;20.16;53.91;99145.72;7392658;19;1807;-68
2023/11/28 12:42:04;;;;;;;;;;;;;;;19.65;55.08;99142.75;7395324;19;1911;-68
2023/11/28 12:44:32;;;;;;;;;;;;;;;19.34;55.94;99146.34;7395880;19;1625;-68
2023/11/28 12:47:03;;;;;;;;;;;;;;;19.10;56.44;99130.38;7393890;19;1847;-68
2023/11/28 12:49:34;;;;;;;;;;;;;;;19.43;55.71;99134.53;7379625;19;1621;-68
2023/11/28 12:52:02;;;;;;;;;;;;;;;19.81;54.76;99115.84;7394559;19;1595;-68
2023/11/28 12:54:31;;;;;;;;;;;;;;;19.91;54.41;99110.22;7395301;19;1478;-68
2023/11/28 12:57:00;;;;;;;;;;;;;;;19.48;55.68;99100.00;7396285;19;1339;-68
2023/11/28 12:59:28;;;;;;;;;;;;;;;19.29;56.06;99103.16;7394850;19;1856;-68
2023/11/28 13:01:57;;;;;;;;;;;;;;;19.13;56.62;99097.91;7394540;19;1801;-67